Terminal Aerodrome Forecast
Issued by NWS

Home | Current Version | Previous Version | Text Only | Print | Product List | Glossary On
Versions: 1 2 3 4 5 6 7 8 9 10 11 12 13 14 15 16 17 18 19
000
FTUS43 KGRR 042330
TAFAZO
TAF
KAZO 042330Z 0500/0524 12006KT 1/4SM +SN FG OVC005
     FM050100 10008KT 1 1/2SM -SN BR OVC008
      TEMPO 0501/0502 1/2SM SN FG OVC004
     FM050200 23009KT 3SM -SN BR OVC009
     FM050700 25009KT 4SM BR OVC015
     FM051200 22008KT P6SM OVC025
     FM051700 22009KT P6SM BKN050=

USA.gov is the U.S. government's official web portal to all federal, state and local government web resources and services.